createdAt,value
2018-03-01T00:03:32.984Z,22
2018-03-01T00:13:32.366Z,22
2018-03-01T00:23:31.289Z,22
2018-03-01T00:33:30.556Z,21.9
2018-03-01T00:43:29.936Z,21.9
2018-03-01T00:53:29.582Z,21.9
2018-03-01T01:03:28.075Z,21.9
2018-03-01T01:13:27.505Z,21.9
2018-03-01T01:23:26.591Z,21.9
2018-03-01T01:33:26.107Z,21.9
2018-03-01T01:43:25.161Z,21.9
2018-03-01T01:53:24.457Z,21.9
2018-03-01T02:03:23.637Z,21.9
2018-03-01T02:13:22.704Z,21.9
2018-03-01T02:23:21.688Z,21.9
2018-03-01T02:33:21.013Z,21.9
2018-03-01T02:43:20.792Z,21.8
2018-03-01T02:53:19.272Z,21.9
2018-03-01T03:03:18.710Z,21.8
2018-03-01T03:13:17.938Z,21.8
2018-03-01T03:23:16.876Z,21.8
2018-03-01T03:33:16.212Z,21.8
2018-03-01T03:43:15.626Z,21.8
2018-03-01T03:53:14.977Z,21.8
2018-03-01T04:03:14.154Z,21.8
2018-03-01T04:13:13.203Z,21.8
2018-03-01T04:23:12.267Z,21.8
2018-03-01T04:33:11.554Z,21.9
2018-03-01T04:43:10.531Z,22.1
2018-03-01T04:53:09.906Z,22
2018-03-01T05:03:09.453Z,22.1
2018-03-01T05:13:08.416Z,22.3
2018-03-01T05:23:07.606Z,22.3
2018-03-01T05:33:06.725Z,22.1
2018-03-01T05:43:05.920Z,22.1
2018-03-01T05:53:05.350Z,22.2
2018-03-01T06:03:04.177Z,22.3
2018-03-01T06:13:03.436Z,22.4
2018-03-01T06:23:02.666Z,22.3
2018-03-01T06:33:01.738Z,22.3
2018-03-01T06:43:01.228Z,22.3
2018-03-01T06:53:00.682Z,22.6
2018-03-01T07:02:59.661Z,22.7
2018-03-01T07:12:58.586Z,22.5
2018-03-01T07:22:57.793Z,22.4
2018-03-01T07:32:57.058Z,22.4
2018-03-01T07:42:56.058Z,22.7
2018-03-01T07:52:55.315Z,22.9
2018-03-01T08:02:55.132Z,22.8
2018-03-01T08:12:53.690Z,22.6
2018-03-01T08:22:53.360Z,22.6
2018-03-01T08:32:52.527Z,22.6
2018-03-01T08:42:51.704Z,22.5
2018-03-01T08:52:50.804Z,22.5
2018-03-01T09:02:49.894Z,22.4
2018-03-01T09:12:49.456Z,22.5
2018-03-01T09:22:48.137Z,22.4
2018-03-01T09:32:47.712Z,22.4
2018-03-01T09:42:47.084Z,22.4
2018-03-01T09:52:45.725Z,22.4
2018-03-01T10:02:45.506Z,22.4
2018-03-01T10:12:44.223Z,22.4
2018-03-01T10:22:43.695Z,22.4
2018-03-01T10:32:42.572Z,22.4
2018-03-01T10:42:42.166Z,22.4
2018-03-01T10:52:40.872Z,22.4
2018-03-01T11:02:40.174Z,22.4
2018-03-01T11:12:39.822Z,22.4
2018-03-01T11:22:38.590Z,22.4
2018-03-01T12:02:35.299Z,22.6
2018-03-01T12:12:34.513Z,22.6
2018-03-01T12:22:33.843Z,22.5
2018-03-01T12:32:33.146Z,22.5
2018-03-01T12:42:32.148Z,22.5
2018-03-01T12:52:31.661Z,22.4
2018-03-01T13:02:30.492Z,22.3
2018-03-01T13:12:29.735Z,22.3
2018-03-01T13:22:29.048Z,22.3
2018-03-01T13:32:28.423Z,22.3
2018-03-01T13:42:27.347Z,22.3
2018-03-01T13:52:26.844Z,22.3
2018-03-01T14:02:25.927Z,22.3
2018-03-01T14:12:25.124Z,22.3
2018-03-01T14:22:24.688Z,22.3
2018-03-01T14:32:23.299Z,22.3
2018-03-01T14:42:22.905Z,22.3
2018-03-01T14:52:21.990Z,22.3
2018-03-01T15:02:20.866Z,22.3
2018-03-01T15:12:20.128Z,22.3
2018-03-01T15:22:19.522Z,22.3
2018-03-01T15:32:18.775Z,22.3
2018-03-01T15:42:17.928Z,22.3
2018-03-01T15:52:16.912Z,22.1
2018-03-01T16:02:16.359Z,22.1
2018-03-01T16:12:15.654Z,22
2018-03-01T16:22:14.790Z,21.9
2018-03-01T16:32:14.084Z,21.9
2018-03-01T16:42:12.907Z,21.9
2018-03-01T16:52:12.239Z,21.9
2018-03-01T17:02:11.294Z,21.9
2018-03-01T17:12:10.487Z,21.9
2018-03-01T17:22:09.923Z,21.9
2018-03-01T17:32:09.206Z,21.9
2018-03-01T17:42:08.237Z,21.9
2018-03-01T17:52:07.444Z,21.8
2018-03-01T18:02:06.906Z,21.9
2018-03-01T18:12:05.726Z,21.9
2018-03-01T18:22:04.921Z,21.9
2018-03-01T18:32:04.330Z,21.9
2018-03-01T18:42:03.461Z,21.9
2018-03-01T18:52:02.758Z,21.9
2018-03-01T19:02:01.820Z,21.9
2018-03-01T19:12:01.003Z,21.9
2018-03-01T19:22:00.084Z,21.9
2018-03-01T19:31:59.586Z,21.9
2018-03-01T19:41:58.661Z,21.9
2018-03-01T19:51:58.448Z,22.3
2018-03-01T20:01:57.500Z,22.1
2018-03-01T20:11:56.422Z,21.9
2018-03-01T20:21:55.439Z,21.9
2018-03-01T20:31:54.552Z,21.9
2018-03-01T20:41:54.023Z,21.8
2018-03-01T20:51:52.987Z,21.8
2018-03-01T21:01:52.193Z,21.8
2018-03-01T21:11:51.816Z,21.9
2018-03-01T21:21:51.053Z,21.8
2018-03-01T21:31:50.097Z,21.8
2018-03-01T21:41:49.069Z,21.7
2018-03-01T21:51:48.480Z,21.7
2018-03-01T22:01:47.419Z,21.7
2018-03-01T22:11:46.739Z,21.7
2018-03-01T22:21:45.814Z,21.7
2018-03-01T22:31:45.032Z,21.6
2018-03-01T22:41:45.066Z,21.6
2018-03-01T22:51:43.499Z,21.6
2018-03-01T23:01:42.878Z,21.6
2018-03-01T23:11:41.791Z,21.6
2018-03-01T23:21:41.069Z,21.6
2018-03-01T23:31:40.409Z,21.6
2018-03-01T23:41:39.629Z,21.6
2018-03-01T23:51:39.172Z,21.6
